sensor_id;sensor_type;location;lat;lon;timestamp;P1;durP1;ratioP1;P2;durP2;ratioP2
64609;SDS011;51019;46.090;6.350;2022-10-03T00:04:43;10.23;;;6.15;;
64609;SDS011;51019;46.090;6.350;2022-10-03T00:07:35;11.90;;;6.03;;
64609;SDS011;51019;46.090;6.350;2022-10-03T00:10:21;11.90;;;10.68;;
64609;SDS011;51019;46.090;6.350;2022-10-03T00:13:05;12.27;;;10.45;;
64609;SDS011;51019;46.090;6.350;2022-10-03T00:15:46;11.13;;;7.47;;
64609;SDS011;51019;46.090;6.350;2022-10-03T00:18:22;9.35;;;5.50;;
64609;SDS011;51019;46.090;6.350;2022-10-03T00:21:05;11.38;;;9.52;;
64609;SDS011;51019;46.090;6.350;2022-10-03T00:23:45;11.43;;;6.43;;
64609;SDS011;51019;46.090;6.350;2022-10-03T00:26:19;12.32;;;7.82;;
64609;SDS011;51019;46.090;6.350;2022-10-03T00:29:08;15.38;;;10.18;;
64609;SDS011;51019;46.090;6.350;2022-10-03T00:31:52;20.42;;;7.93;;
64609;SDS011;51019;46.090;6.350;2022-10-03T00:34:30;10.77;;;6.95;;
64609;SDS011;51019;46.090;6.350;2022-10-03T00:37:15;12.60;;;10.57;;
64609;SDS011;51019;46.090;6.350;2022-10-03T00:43:15;15.85;;;14.10;;
64609;SDS011;51019;46.090;6.350;2022-10-03T00:49:20;13.38;;;11.98;;
64609;SDS011;51019;46.090;6.350;2022-10-03T00:52:14;13.02;;;10.13;;
64609;SDS011;51019;46.090;6.350;2022-10-03T00:54:57;13.25;;;11.88;;
64609;SDS011;51019;46.090;6.350;2022-10-03T00:57:38;14.02;;;12.52;;
64609;SDS011;51019;46.090;6.350;2022-10-03T01:00:18;16.33;;;14.63;;
64609;SDS011;51019;46.090;6.350;2022-10-03T01:02:53;16.90;;;11.25;;
64609;SDS011;51019;46.090;6.350;2022-10-03T01:05:38;19.38;;;17.67;;
64609;SDS011;51019;46.090;6.350;2022-10-03T01:08:22;15.07;;;13.43;;
64609;SDS011;51019;46.090;6.350;2022-10-03T01:11:06;15.93;;;14.38;;
64609;SDS011;51019;46.090;6.350;2022-10-03T01:13:46;16.90;;;15.38;;
64609;SDS011;51019;46.090;6.350;2022-10-03T01:16:24;12.07;;;10.63;;
64609;SDS011;51019;46.090;6.350;2022-10-03T01:19:07;13.23;;;11.80;;
64609;SDS011;51019;46.090;6.350;2022-10-03T01:21:57;15.45;;;13.93;;
64609;SDS011;51019;46.090;6.350;2022-10-03T01:24:46;16.33;;;14.70;;
64609;SDS011;51019;46.090;6.350;2022-10-03T01:27:24;14.38;;;9.00;;
64609;SDS011;51019;46.090;6.350;2022-10-03T01:30:00;11.18;;;7.15;;
64609;SDS011;51019;46.090;6.350;2022-10-03T01:32:48;11.73;;;10.20;;
64609;SDS011;51019;46.090;6.350;2022-10-03T01:35:23;11.52;;;8.65;;
64609;SDS011;51019;46.090;6.350;2022-10-03T01:37:58;14.43;;;11.23;;
64609;SDS011;51019;46.090;6.350;2022-10-03T01:40:35;12.48;;;8.45;;
64609;SDS011;51019;46.090;6.350;2022-10-03T01:43:12;15.02;;;13.55;;
64609;SDS011;51019;46.090;6.350;2022-10-03T01:45:57;10.63;;;6.80;;
64609;SDS011;51019;46.090;6.350;2022-10-03T01:48:34;13.55;;;11.18;;
64609;SDS011;51019;46.090;6.350;2022-10-03T01:51:10;12.50;;;10.10;;
64609;SDS011;51019;46.090;6.350;2022-10-03T01:56:40;14.82;;;12.63;;
64609;SDS011;51019;46.090;6.350;2022-10-03T01:59:15;11.93;;;8.52;;
64609;SDS011;51019;46.090;6.350;2022-10-03T02:01:49;13.45;;;12.02;;
64609;SDS011;51019;46.090;6.350;2022-10-03T02:04:30;10.43;;;7.82;;
64609;SDS011;51019;46.090;6.350;2022-10-03T02:07:10;11.32;;;5.78;;
64609;SDS011;51019;46.090;6.350;2022-10-03T02:09:49;12.82;;;9.93;;
64609;SDS011;51019;46.090;6.350;2022-10-03T02:12:27;11.65;;;10.23;;
64609;SDS011;51019;46.090;6.350;2022-10-03T02:15:00;12.15;;;9.00;;
64609;SDS011;51019;46.090;6.350;2022-10-03T02:17:44;14.48;;;11.82;;
64609;SDS011;51019;46.090;6.350;2022-10-03T02:20:22;11.30;;;8.55;;
64609;SDS011;51019;46.090;6.350;2022-10-03T02:22:55;11.27;;;9.90;;
64609;SDS011;51019;46.090;6.350;2022-10-03T02:25:26;17.60;;;16.10;;
64609;SDS011;51019;46.090;6.350;2022-10-03T02:40:52;11.25;;;9.27;;
64609;SDS011;51019;46.090;6.350;2022-10-03T02:49:56;11.55;;;10.07;;
64609;SDS011;51019;46.090;6.350;2022-10-03T03:02:03;12.32;;;10.98;;
64609;SDS011;51019;46.090;6.350;2022-10-03T03:10:59;10.98;;;7.28;;
64609;SDS011;51019;46.090;6.350;2022-10-03T03:13:44;18.05;;;16.42;;
64609;SDS011;51019;46.090;6.350;2022-10-03T03:19:37;12.57;;;8.13;;
64609;SDS011;51019;46.090;6.350;2022-10-03T03:22:21;16.45;;;12.68;;
64609;SDS011;51019;46.090;6.350;2022-10-03T03:25:07;12.73;;;9.90;;
64609;SDS011;51019;46.090;6.350;2022-10-03T03:27:48;12.55;;;10.55;;
64609;SDS011;51019;46.090;6.350;2022-10-03T03:30:27;14.23;;;12.82;;
64609;SDS011;51019;46.090;6.350;2022-10-03T03:33:04;16.08;;;11.15;;
64609;SDS011;51019;46.090;6.350;2022-10-03T03:35:55;12.57;;;11.30;;
64609;SDS011;51019;46.090;6.350;2022-10-03T03:38:33;13.98;;;12.68;;
64609;SDS011;51019;46.090;6.350;2022-10-03T03:41:19;12.75;;;10.23;;
64609;SDS011;51019;46.090;6.350;2022-10-03T03:47:19;12.60;;;10.18;;
64609;SDS011;51019;46.090;6.350;2022-10-03T03:50:14;9.98;;;6.75;;
64609;SDS011;51019;46.090;6.350;2022-10-03T03:53:10;10.63;;;8.80;;
64609;SDS011;51019;46.090;6.350;2022-10-03T03:56:02;20.67;;;18.92;;
64609;SDS011;51019;46.090;6.350;2022-10-03T03:58:46;14.10;;;11.05;;
64609;SDS011;51019;46.090;6.350;2022-10-03T04:01:34;12.90;;;11.60;;
64609;SDS011;51019;46.090;6.350;2022-10-03T04:04:14;13.57;;;9.05;;
64609;SDS011;51019;46.090;6.350;2022-10-03T04:06:54;15.02;;;12.95;;
64609;SDS011;51019;46.090;6.350;2022-10-03T04:09:45;22.38;;;13.80;;
64609;SDS011;51019;46.090;6.350;2022-10-03T04:12:32;14.95;;;13.45;;
64609;SDS011;51019;46.090;6.350;2022-10-03T04:15:22;15.60;;;14.15;;
64609;SDS011;51019;46.090;6.350;2022-10-03T04:18:03;14.68;;;13.25;;
64609;SDS011;51019;46.090;6.350;2022-10-03T04:21:00;19.30;;;17.45;;
64609;SDS011;51019;46.090;6.350;2022-10-03T04:23:55;17.25;;;15.55;;
64609;SDS011;51019;46.090;6.350;2022-10-03T04:29:32;16.45;;;14.73;;
64609;SDS011;51019;46.090;6.350;2022-10-03T04:32:13;15.80;;;14.00;;
64609;SDS011;51019;46.090;6.350;2022-10-03T04:34:57;16.88;;;15.20;;
64609;SDS011;51019;46.090;6.350;2022-10-03T04:37:52;14.00;;;12.52;;
64609;SDS011;51019;46.090;6.350;2022-10-03T04:40:28;14.45;;;12.82;;
64609;SDS011;51019;46.090;6.350;2022-10-03T04:43:14;16.15;;;14.50;;
64609;SDS011;51019;46.090;6.350;2022-10-03T04:45:58;14.70;;;12.13;;
64609;SDS011;51019;46.090;6.350;2022-10-03T04:48:42;13.20;;;11.93;;
64609;SDS011;51019;46.090;6.350;2022-10-03T04:54:53;19.92;;;18.13;;
64609;SDS011;51019;46.090;6.350;2022-10-03T04:57:30;12.05;;;9.10;;
64609;SDS011;51019;46.090;6.350;2022-10-03T05:00:13;16.27;;;14.68;;
64609;SDS011;51019;46.090;6.350;2022-10-03T05:02:51;14.43;;;12.98;;
64609;SDS011;51019;46.090;6.350;2022-10-03T05:08:14;18.50;;;16.77;;
64609;SDS011;51019;46.090;6.350;2022-10-03T05:10:51;15.32;;;13.93;;
64609;SDS011;51019;46.090;6.350;2022-10-03T05:13:38;13.98;;;12.57;;
64609;SDS011;51019;46.090;6.350;2022-10-03T05:16:19;12.90;;;10.75;;
64609;SDS011;51019;46.090;6.350;2022-10-03T05:19:02;14.85;;;13.15;;
64609;SDS011;51019;46.090;6.350;2022-10-03T05:21:53;18.85;;;17.27;;
64609;SDS011;51019;46.090;6.350;2022-10-03T05:24:27;18.50;;;17.02;;
64609;SDS011;51019;46.090;6.350;2022-10-03T05:27:07;18.05;;;16.35;;
64609;SDS011;51019;46.090;6.350;2022-10-03T05:29:46;14.05;;;11.93;;
64609;SDS011;51019;46.090;6.350;2022-10-03T05:32:26;12.15;;;10.95;;
64609;SDS011;51019;46.090;6.350;2022-10-03T05:38:01;21.77;;;19.92;;
64609;SDS011;51019;46.090;6.350;2022-10-03T05:40:47;26.42;;;24.33;;
64609;SDS011;51019;46.090;6.350;2022-10-03T05:43:27;27.42;;;25.27;;
64609;SDS011;51019;46.090;6.350;2022-10-03T05:46:09;31.70;;;29.23;;
64609;SDS011;51019;46.090;6.350;2022-10-03T05:48:50;45.05;;;42.03;;
64609;SDS011;51019;46.090;6.350;2022-10-03T05:51:36;45.75;;;42.70;;
64609;SDS011;51019;46.090;6.350;2022-10-03T05:54:28;40.35;;;37.22;;
64609;SDS011;51019;46.090;6.350;2022-10-03T06:00:23;34.83;;;31.70;;
64609;SDS011;51019;46.090;6.350;2022-10-03T06:03:08;32.67;;;30.27;;
64609;SDS011;51019;46.090;6.350;2022-10-03T06:06:10;37.22;;;34.17;;
64609;SDS011;51019;46.090;6.350;2022-10-03T06:08:53;27.67;;;25.15;;
64609;SDS011;51019;46.090;6.350;2022-10-03T06:11:56;31.40;;;28.48;;
64609;SDS011;51019;46.090;6.350;2022-10-03T06:14:31;31.50;;;28.80;;
64609;SDS011;51019;46.090;6.350;2022-10-03T06:17:08;39.00;;;36.67;;
64609;SDS011;51019;46.090;6.350;2022-10-03T06:19:52;37.17;;;34.55;;
64609;SDS011;51019;46.090;6.350;2022-10-03T06:25:45;36.85;;;34.45;;
64609;SDS011;51019;46.090;6.350;2022-10-03T06:28:48;34.47;;;32.00;;
64609;SDS011;51019;46.090;6.350;2022-10-03T06:32:02;27.98;;;25.77;;
64609;SDS011;51019;46.090;6.350;2022-10-03T06:37:47;40.80;;;38.13;;
64609;SDS011;51019;46.090;6.350;2022-10-03T06:41:02;40.15;;;37.25;;
64609;SDS011;51019;46.090;6.350;2022-10-03T06:43:59;41.45;;;38.65;;
64609;SDS011;51019;46.090;6.350;2022-10-03T06:49:51;56.67;;;53.17;;
64609;SDS011;51019;46.090;6.350;2022-10-03T06:52:49;57.80;;;54.53;;
64609;SDS011;51019;46.090;6.350;2022-10-03T06:56:12;49.53;;;46.45;;
64609;SDS011;51019;46.090;6.350;2022-10-03T06:59:09;56.63;;;52.67;;
64609;SDS011;51019;46.090;6.350;2022-10-03T07:02:19;52.05;;;48.53;;
64609;SDS011;51019;46.090;6.350;2022-10-03T07:05:04;54.60;;;51.13;;
64609;SDS011;51019;46.090;6.350;2022-10-03T07:11:18;49.22;;;45.92;;
64609;SDS011;51019;46.090;6.350;2022-10-03T07:17:14;41.97;;;39.15;;
64609;SDS011;51019;46.090;6.350;2022-10-03T07:19:56;55.28;;;52.05;;
64609;SDS011;51019;46.090;6.350;2022-10-03T07:26:39;41.60;;;38.75;;
64609;SDS011;51019;46.090;6.350;2022-10-03T07:32:42;38.80;;;36.28;;
64609;SDS011;51019;46.090;6.350;2022-10-03T07:38:55;31.80;;;29.42;;
64609;SDS011;51019;46.090;6.350;2022-10-03T07:44:56;31.73;;;29.27;;
64609;SDS011;51019;46.090;6.350;2022-10-03T07:51:13;36.47;;;33.90;;
64609;SDS011;51019;46.090;6.350;2022-10-03T07:54:01;23.95;;;21.83;;
64609;SDS011;51019;46.090;6.350;2022-10-03T08:00:10;22.15;;;20.30;;
64609;SDS011;51019;46.090;6.350;2022-10-03T08:08:54;31.58;;;29.23;;
64609;SDS011;51019;46.090;6.350;2022-10-03T08:11:56;22.85;;;20.88;;
64609;SDS011;51019;46.090;6.350;2022-10-03T08:14:49;27.15;;;24.80;;
64609;SDS011;51019;46.090;6.350;2022-10-03T08:23:32;24.20;;;22.02;;
64609;SDS011;51019;46.090;6.350;2022-10-03T08:26:30;22.73;;;20.58;;
64609;SDS011;51019;46.090;6.350;2022-10-03T08:29:30;21.00;;;19.10;;
64609;SDS011;51019;46.090;6.350;2022-10-03T08:38:44;14.30;;;11.27;;
64609;SDS011;51019;46.090;6.350;2022-10-03T08:47:37;16.58;;;14.90;;
64609;SDS011;51019;46.090;6.350;2022-10-03T08:50:39;16.13;;;14.57;;
64609;SDS011;51019;46.090;6.350;2022-10-03T08:53:30;14.25;;;11.90;;
64609;SDS011;51019;46.090;6.350;2022-10-03T08:56:23;17.63;;;16.02;;
64609;SDS011;51019;46.090;6.350;2022-10-03T09:11:52;20.33;;;18.65;;
64609;SDS011;51019;46.090;6.350;2022-10-03T09:14:49;18.92;;;17.23;;
64609;SDS011;51019;46.090;6.350;2022-10-03T09:20:48;19.58;;;17.98;;
64609;SDS011;51019;46.090;6.350;2022-10-03T09:30:24;22.08;;;20.38;;
64609;SDS011;51019;46.090;6.350;2022-10-03T09:33:11;22.63;;;20.83;;
64609;SDS011;51019;46.090;6.350;2022-10-03T09:48:49;29.15;;;27.00;;
64609;SDS011;51019;46.090;6.350;2022-10-03T09:51:53;22.90;;;21.20;;
64609;SDS011;51019;46.090;6.350;2022-10-03T09:54:48;27.48;;;25.50;;
64609;SDS011;51019;46.090;6.350;2022-10-03T09:57:41;25.52;;;23.67;;
64609;SDS011;51019;46.090;6.350;2022-10-03T10:00:27;22.98;;;21.30;;
64609;SDS011;51019;46.090;6.350;2022-10-03T10:03:25;28.70;;;26.67;;
64609;SDS011;51019;46.090;6.350;2022-10-03T10:06:20;25.73;;;23.92;;
64609;SDS011;51019;46.090;6.350;2022-10-03T10:09:13;26.33;;;24.27;;
64609;SDS011;51019;46.090;6.350;2022-10-03T10:18:34;30.25;;;28.08;;
64609;SDS011;51019;46.090;6.350;2022-10-03T10:21:41;17.85;;;16.35;;
64609;SDS011;51019;46.090;6.350;2022-10-03T10:27:58;22.20;;;20.50;;
64609;SDS011;51019;46.090;6.350;2022-10-03T11:05:37;14.50;;;13.00;;
64609;SDS011;51019;46.090;6.350;2022-10-03T11:14:35;11.50;;;9.35;;
64609;SDS011;51019;46.090;6.350;2022-10-03T11:17:52;12.95;;;10.52;;
64609;SDS011;51019;46.090;6.350;2022-10-03T11:30:34;10.80;;;8.23;;
64609;SDS011;51019;46.090;6.350;2022-10-03T11:39:34;10.93;;;7.97;;
64609;SDS011;51019;46.090;6.350;2022-10-03T11:42:10;12.73;;;8.73;;
64609;SDS011;51019;46.090;6.350;2022-10-03T11:44:49;10.88;;;8.07;;
64609;SDS011;51019;46.090;6.350;2022-10-03T11:50:25;12.18;;;8.68;;
64609;SDS011;51019;46.090;6.350;2022-10-03T11:55:51;14.68;;;10.07;;
64609;SDS011;51019;46.090;6.350;2022-10-03T11:58:31;10.27;;;8.07;;
64609;SDS011;51019;46.090;6.350;2022-10-03T12:01:17;9.35;;;6.13;;
64609;SDS011;51019;46.090;6.350;2022-10-03T12:03:55;9.52;;;6.70;;
64609;SDS011;51019;46.090;6.350;2022-10-03T12:06:38;10.27;;;8.02;;
64609;SDS011;51019;46.090;6.350;2022-10-03T12:09:36;10.50;;;7.60;;
64609;SDS011;51019;46.090;6.350;2022-10-03T12:12:13;11.00;;;8.77;;
64609;SDS011;51019;46.090;6.350;2022-10-03T12:14:52;9.85;;;6.65;;
64609;SDS011;51019;46.090;6.350;2022-10-03T12:17:24;11.65;;;8.30;;
64609;SDS011;51019;46.090;6.350;2022-10-03T12:19:59;10.27;;;7.88;;
64609;SDS011;51019;46.090;6.350;2022-10-03T12:22:41;10.93;;;9.77;;
64609;SDS011;51019;46.090;6.350;2022-10-03T12:25:17;9.98;;;7.88;;
64609;SDS011;51019;46.090;6.350;2022-10-03T12:28:00;11.23;;;5.40;;
64609;SDS011;51019;46.090;6.350;2022-10-03T12:30:41;9.93;;;7.70;;
64609;SDS011;51019;46.090;6.350;2022-10-03T12:33:23;10.70;;;8.90;;
64609;SDS011;51019;46.090;6.350;2022-10-03T12:36:10;10.07;;;6.75;;
64609;SDS011;51019;46.090;6.350;2022-10-03T12:38:43;10.50;;;6.38;;
64609;SDS011;51019;46.090;6.350;2022-10-03T12:41:21;10.93;;;6.43;;
64609;SDS011;51019;46.090;6.350;2022-10-03T12:44:08;9.43;;;6.43;;
64609;SDS011;51019;46.090;6.350;2022-10-03T12:46:47;11.43;;;8.38;;
64609;SDS011;51019;46.090;6.350;2022-10-03T12:49:27;10.07;;;7.53;;
64609;SDS011;51019;46.090;6.350;2022-10-03T12:52:04;10.10;;;6.72;;
64609;SDS011;51019;46.090;6.350;2022-10-03T12:54:44;11.27;;;8.88;;
64609;SDS011;51019;46.090;6.350;2022-10-03T13:00:18;10.38;;;7.18;;
64609;SDS011;51019;46.090;6.350;2022-10-03T13:05:51;9.60;;;5.93;;
64609;SDS011;51019;46.090;6.350;2022-10-03T13:11:35;11.48;;;5.32;;
64609;SDS011;51019;46.090;6.350;2022-10-03T13:14:19;9.20;;;5.85;;
64609;SDS011;51019;46.090;6.350;2022-10-03T13:17:01;9.05;;;5.75;;
64609;SDS011;51019;46.090;6.350;2022-10-03T13:19:37;8.18;;;4.72;;
64609;SDS011;51019;46.090;6.350;2022-10-03T13:22:19;9.20;;;5.78;;
64609;SDS011;51019;46.090;6.350;2022-10-03T13:24:59;10.15;;;5.53;;
64609;SDS011;51019;46.090;6.350;2022-10-03T13:27:31;9.00;;;6.65;;
64609;SDS011;51019;46.090;6.350;2022-10-03T13:30:05;8.18;;;5.43;;
64609;SDS011;51019;46.090;6.350;2022-10-03T13:32:45;9.60;;;5.22;;
64609;SDS011;51019;46.090;6.350;2022-10-03T13:35:18;8.75;;;4.60;;
64609;SDS011;51019;46.090;6.350;2022-10-03T13:38:14;8.63;;;5.22;;
64609;SDS011;51019;46.090;6.350;2022-10-03T13:41:04;8.50;;;4.60;;
64609;SDS011;51019;46.090;6.350;2022-10-03T13:43:41;9.18;;;5.07;;
64609;SDS011;51019;46.090;6.350;2022-10-03T13:46:14;9.02;;;6.15;;
64609;SDS011;51019;46.090;6.350;2022-10-03T13:48:49;8.60;;;5.53;;
64609;SDS011;51019;46.090;6.350;2022-10-03T13:51:26;9.05;;;4.75;;
64609;SDS011;51019;46.090;6.350;2022-10-03T13:54:01;9.02;;;5.25;;
64609;SDS011;51019;46.090;6.350;2022-10-03T13:56:37;8.25;;;4.80;;
64609;SDS011;51019;46.090;6.350;2022-10-03T13:59:17;7.75;;;4.07;;
64609;SDS011;51019;46.090;6.350;2022-10-03T14:02:22;43.67;;;6.53;;
64609;SDS011;51019;46.090;6.350;2022-10-03T14:07:58;9.48;;;4.97;;
64609;SDS011;51019;46.090;6.350;2022-10-03T14:10:49;8.95;;;5.45;;
64609;SDS011;51019;46.090;6.350;2022-10-03T14:13:29;10.35;;;5.05;;
64609;SDS011;51019;46.090;6.350;2022-10-03T14:16:07;9.05;;;4.80;;
64609;SDS011;51019;46.090;6.350;2022-10-03T14:18:44;10.20;;;5.40;;
64609;SDS011;51019;46.090;6.350;2022-10-03T14:21:32;6.82;;;4.00;;
64609;SDS011;51019;46.090;6.350;2022-10-03T14:24:19;8.05;;;4.35;;
64609;SDS011;51019;46.090;6.350;2022-10-03T14:27:10;8.27;;;4.95;;
64609;SDS011;51019;46.090;6.350;2022-10-03T14:29:51;7.40;;;4.20;;
64609;SDS011;51019;46.090;6.350;2022-10-03T14:32:26;7.63;;;4.60;;
64609;SDS011;51019;46.090;6.350;2022-10-03T14:35:03;8.18;;;4.93;;
64609;SDS011;51019;46.090;6.350;2022-10-03T14:37:45;8.05;;;4.38;;
64609;SDS011;51019;46.090;6.350;2022-10-03T14:40:21;9.65;;;6.10;;
64609;SDS011;51019;46.090;6.350;2022-10-03T14:43:00;9.57;;;4.68;;
64609;SDS011;51019;46.090;6.350;2022-10-03T14:48:10;8.30;;;4.30;;
64609;SDS011;51019;46.090;6.350;2022-10-03T14:50:41;7.97;;;5.22;;
64609;SDS011;51019;46.090;6.350;2022-10-03T14:53:14;8.40;;;5.10;;
64609;SDS011;51019;46.090;6.350;2022-10-03T14:55:45;8.70;;;4.13;;
64609;SDS011;51019;46.090;6.350;2022-10-03T14:58:22;8.20;;;5.13;;
64609;SDS011;51019;46.090;6.350;2022-10-03T15:00:53;8.18;;;5.10;;
64609;SDS011;51019;46.090;6.350;2022-10-03T15:03:28;9.27;;;4.93;;
64609;SDS011;51019;46.090;6.350;2022-10-03T15:06:19;9.68;;;5.40;;
64609;SDS011;51019;46.090;6.350;2022-10-03T15:08:50;8.07;;;4.82;;
64609;SDS011;51019;46.090;6.350;2022-10-03T15:11:22;8.80;;;4.13;;
64609;SDS011;51019;46.090;6.350;2022-10-03T15:13:53;8.52;;;6.13;;
64609;SDS011;51019;46.090;6.350;2022-10-03T15:16:26;8.95;;;4.18;;
64609;SDS011;51019;46.090;6.350;2022-10-03T15:18:59;7.28;;;4.15;;
64609;SDS011;51019;46.090;6.350;2022-10-03T15:24:00;7.53;;;4.60;;
64609;SDS011;51019;46.090;6.350;2022-10-03T15:26:31;8.32;;;4.97;;
64609;SDS011;51019;46.090;6.350;2022-10-03T15:29:02;7.78;;;4.03;;
64609;SDS011;51019;46.090;6.350;2022-10-03T15:31:32;7.32;;;4.35;;
64609;SDS011;51019;46.090;6.350;2022-10-03T15:34:03;9.75;;;7.53;;
64609;SDS011;51019;46.090;6.350;2022-10-03T15:36:34;8.65;;;5.68;;
64609;SDS011;51019;46.090;6.350;2022-10-03T15:39:05;9.25;;;6.10;;
64609;SDS011;51019;46.090;6.350;2022-10-03T15:41:47;8.93;;;5.40;;
64609;SDS011;51019;46.090;6.350;2022-10-03T15:44:18;10.30;;;6.15;;
64609;SDS011;51019;46.090;6.350;2022-10-03T15:46:53;8.48;;;5.57;;
64609;SDS011;51019;46.090;6.350;2022-10-03T15:51:56;7.22;;;4.70;;
64609;SDS011;51019;46.090;6.350;2022-10-03T15:54:27;10.52;;;4.88;;
64609;SDS011;51019;46.090;6.350;2022-10-03T15:57:00;8.70;;;5.25;;
64609;SDS011;51019;46.090;6.350;2022-10-03T15:59:31;8.77;;;4.70;;
64609;SDS011;51019;46.090;6.350;2022-10-03T16:02:04;8.45;;;4.40;;
64609;SDS011;51019;46.090;6.350;2022-10-03T16:04:38;8.55;;;5.38;;
64609;SDS011;51019;46.090;6.350;2022-10-03T16:07:10;6.90;;;4.38;;
64609;SDS011;51019;46.090;6.350;2022-10-03T16:09:49;7.95;;;4.82;;
64609;SDS011;51019;46.090;6.350;2022-10-03T16:15:26;9.05;;;6.30;;
64609;SDS011;51019;46.090;6.350;2022-10-03T16:18:03;8.18;;;5.93;;
64609;SDS011;51019;46.090;6.350;2022-10-03T16:20:33;10.52;;;6.57;;
64609;SDS011;51019;46.090;6.350;2022-10-03T16:25:41;8.27;;;4.45;;
64609;SDS011;51019;46.090;6.350;2022-10-03T16:28:13;8.80;;;6.93;;
64609;SDS011;51019;46.090;6.350;2022-10-03T16:30:44;8.68;;;5.55;;
64609;SDS011;51019;46.090;6.350;2022-10-03T16:33:19;7.93;;;4.95;;
64609;SDS011;51019;46.090;6.350;2022-10-03T16:38:21;8.40;;;4.07;;
64609;SDS011;51019;46.090;6.350;2022-10-03T16:43:41;10.40;;;6.35;;
64609;SDS011;51019;46.090;6.350;2022-10-03T16:46:20;9.98;;;6.93;;
64609;SDS011;51019;46.090;6.350;2022-10-03T16:48:54;7.82;;;5.88;;
64609;SDS011;51019;46.090;6.350;2022-10-03T16:51:53;8.90;;;6.25;;
64609;SDS011;51019;46.090;6.350;2022-10-03T16:54:36;11.68;;;7.10;;
64609;SDS011;51019;46.090;6.350;2022-10-03T16:57:10;10.38;;;7.60;;
64609;SDS011;51019;46.090;6.350;2022-10-03T16:59:40;13.38;;;7.43;;
64609;SDS011;51019;46.090;6.350;2022-10-03T17:02:13;9.48;;;7.65;;
64609;SDS011;51019;46.090;6.350;2022-10-03T17:04:43;10.60;;;7.63;;
64609;SDS011;51019;46.090;6.350;2022-10-03T17:07:15;11.85;;;7.22;;
64609;SDS011;51019;46.090;6.350;2022-10-03T17:09:48;11.30;;;7.25;;
64609;SDS011;51019;46.090;6.350;2022-10-03T17:12:21;12.32;;;7.80;;
64609;SDS011;51019;46.090;6.350;2022-10-03T17:14:52;9.35;;;6.85;;
64609;SDS011;51019;46.090;6.350;2022-10-03T17:17:24;26.98;;;16.50;;
64609;SDS011;51019;46.090;6.350;2022-10-03T17:19:56;27.45;;;14.40;;
64609;SDS011;51019;46.090;6.350;2022-10-03T17:22:44;157.82;;;65.55;;
64609;SDS011;51019;46.090;6.350;2022-10-03T17:25:33;45.33;;;23.48;;
64609;SDS011;51019;46.090;6.350;2022-10-03T17:28:11;17.00;;;10.07;;
64609;SDS011;51019;46.090;6.350;2022-10-03T17:30:47;11.00;;;7.20;;
64609;SDS011;51019;46.090;6.350;2022-10-03T17:33:20;14.73;;;9.57;;
64609;SDS011;51019;46.090;6.350;2022-10-03T17:36:09;11.93;;;7.65;;
64609;SDS011;51019;46.090;6.350;2022-10-03T17:39:08;17.00;;;10.63;;
64609;SDS011;51019;46.090;6.350;2022-10-03T17:41:49;12.02;;;6.82;;
64609;SDS011;51019;46.090;6.350;2022-10-03T17:44:24;12.55;;;7.65;;
64609;SDS011;51019;46.090;6.350;2022-10-03T17:47:04;12.02;;;7.10;;
64609;SDS011;51019;46.090;6.350;2022-10-03T17:49:42;11.63;;;7.57;;
64609;SDS011;51019;46.090;6.350;2022-10-03T17:52:21;15.55;;;13.85;;
64609;SDS011;51019;46.090;6.350;2022-10-03T17:54:52;14.65;;;12.60;;
64609;SDS011;51019;46.090;6.350;2022-10-03T17:57:23;10.60;;;7.50;;
64609;SDS011;51019;46.090;6.350;2022-10-03T18:00:05;10.73;;;8.82;;
64609;SDS011;51019;46.090;6.350;2022-10-03T18:02:44;11.52;;;7.68;;
64609;SDS011;51019;46.090;6.350;2022-10-03T18:05:20;11.13;;;7.78;;
64609;SDS011;51019;46.090;6.350;2022-10-03T18:07:51;11.77;;;9.25;;
64609;SDS011;51019;46.090;6.350;2022-10-03T18:10:20;13.82;;;8.90;;
64609;SDS011;51019;46.090;6.350;2022-10-03T18:12:52;11.65;;;8.98;;
64609;SDS011;51019;46.090;6.350;2022-10-03T18:15:41;10.23;;;8.52;;
64609;SDS011;51019;46.090;6.350;2022-10-03T18:18:44;10.80;;;8.15;;
64609;SDS011;51019;46.090;6.350;2022-10-03T18:21:37;11.27;;;9.60;;
64609;SDS011;51019;46.090;6.350;2022-10-03T18:24:23;11.60;;;10.30;;
64609;SDS011;51019;46.090;6.350;2022-10-03T18:27:07;11.75;;;10.02;;
64609;SDS011;51019;46.090;6.350;2022-10-03T18:29:51;13.63;;;10.43;;
64609;SDS011;51019;46.090;6.350;2022-10-03T18:32:27;12.70;;;10.80;;
64609;SDS011;51019;46.090;6.350;2022-10-03T18:35:01;11.20;;;9.88;;
64609;SDS011;51019;46.090;6.350;2022-10-03T18:37:52;12.85;;;9.07;;
64609;SDS011;51019;46.090;6.350;2022-10-03T18:40:26;13.52;;;10.48;;
64609;SDS011;51019;46.090;6.350;2022-10-03T18:42:55;12.23;;;9.70;;
64609;SDS011;51019;46.090;6.350;2022-10-03T18:45:26;12.00;;;9.57;;
64609;SDS011;51019;46.090;6.350;2022-10-03T18:48:02;11.55;;;8.38;;
64609;SDS011;51019;46.090;6.350;2022-10-03T18:50:42;11.48;;;10.15;;
64609;SDS011;51019;46.090;6.350;2022-10-03T18:53:21;12.05;;;10.43;;
64609;SDS011;51019;46.090;6.350;2022-10-03T18:55:58;12.63;;;10.68;;
64609;SDS011;51019;46.090;6.350;2022-10-03T18:58:30;12.38;;;10.15;;
64609;SDS011;51019;46.090;6.350;2022-10-03T19:01:03;12.65;;;10.23;;
64609;SDS011;51019;46.090;6.350;2022-10-03T19:03:40;12.77;;;11.55;;
64609;SDS011;51019;46.090;6.350;2022-10-03T19:06:16;14.07;;;9.77;;
64609;SDS011;51019;46.090;6.350;2022-10-03T19:08:48;10.75;;;9.27;;
64609;SDS011;51019;46.090;6.350;2022-10-03T19:11:19;13.10;;;9.43;;
64609;SDS011;51019;46.090;6.350;2022-10-03T19:13:55;10.27;;;9.18;;
64609;SDS011;51019;46.090;6.350;2022-10-03T19:16:30;12.15;;;9.77;;
64609;SDS011;51019;46.090;6.350;2022-10-03T19:19:10;11.38;;;10.13;;
64609;SDS011;51019;46.090;6.350;2022-10-03T19:21:46;11.63;;;8.52;;
64609;SDS011;51019;46.090;6.350;2022-10-03T19:24:17;11.88;;;9.48;;
64609;SDS011;51019;46.090;6.350;2022-10-03T19:26:54;13.52;;;12.05;;
64609;SDS011;51019;46.090;6.350;2022-10-03T19:29:28;12.43;;;9.07;;
64609;SDS011;51019;46.090;6.350;2022-10-03T19:32:00;14.10;;;12.43;;
64609;SDS011;51019;46.090;6.350;2022-10-03T19:34:34;13.55;;;12.13;;
64609;SDS011;51019;46.090;6.350;2022-10-03T19:37:05;12.10;;;9.40;;
64609;SDS011;51019;46.090;6.350;2022-10-03T19:39:41;12.05;;;10.18;;
64609;SDS011;51019;46.090;6.350;2022-10-03T19:42:17;12.93;;;11.60;;
64609;SDS011;51019;46.090;6.350;2022-10-03T19:44:54;13.95;;;11.98;;
64609;SDS011;51019;46.090;6.350;2022-10-03T19:47:24;12.98;;;11.23;;
64609;SDS011;51019;46.090;6.350;2022-10-03T19:50:01;12.45;;;11.15;;
64609;SDS011;51019;46.090;6.350;2022-10-03T19:52:33;12.18;;;10.30;;
64609;SDS011;51019;46.090;6.350;2022-10-03T19:55:09;15.70;;;11.73;;
64609;SDS011;51019;46.090;6.350;2022-10-03T19:57:40;13.13;;;10.70;;
64609;SDS011;51019;46.090;6.350;2022-10-03T20:00:21;12.57;;;10.50;;
64609;SDS011;51019;46.090;6.350;2022-10-03T20:02:54;13.60;;;12.25;;
64609;SDS011;51019;46.090;6.350;2022-10-03T20:05:36;11.90;;;9.60;;
64609;SDS011;51019;46.090;6.350;2022-10-03T20:08:20;12.15;;;10.07;;
64609;SDS011;51019;46.090;6.350;2022-10-03T20:10:56;12.45;;;11.15;;
64609;SDS011;51019;46.090;6.350;2022-10-03T20:13:49;15.90;;;12.73;;
64609;SDS011;51019;46.090;6.350;2022-10-03T20:16:19;15.30;;;13.80;;
64609;SDS011;51019;46.090;6.350;2022-10-03T20:18:49;18.88;;;17.33;;
64609;SDS011;51019;46.090;6.350;2022-10-03T20:21:25;16.80;;;15.25;;
64609;SDS011;51019;46.090;6.350;2022-10-03T20:23:57;17.08;;;15.45;;